Time;durP1;ratioP1;P1;durP2;ratioP2;P2;SDS_P1;SDS_P2;PMS_P1;PMS_P2;Temp;Humidity;BMP_temperature;BMP_pressure;BME280_temperature;BME280_humidity;BME280_pressure;Samples;Min_cycle;Max_cycle;Signal;HPM_P1;HPM_P2
2022/04/13 00:00:46;;;;;;;18.70;4.80;;;12.00;99.90;;;;;;5033897;28;20043;-59
2022/04/13 00:03:12;;;;;;;20.88;5.25;;;12.00;99.90;;;;;;5031340;28;20196;-59
2022/04/13 00:05:38;;;;;;;14.85;4.63;;;11.90;99.90;;;;;;5032968;28;20025;-59
2022/04/13 00:08:07;;;;;;;15.52;4.50;;;12.00;99.90;;;;;;5035504;28;20033;-59
2022/04/13 00:10:36;;;;;;;17.02;4.70;;;12.00;99.90;;;;;;5033742;28;20028;-59
2022/04/13 00:13:03;;;;;;;21.02;4.75;;;11.90;99.90;;;;;;5033526;28;20041;-60
2022/04/13 00:15:28;;;;;;;17.73;4.90;;;11.80;99.90;;;;;;5033487;28;20025;-59
2022/04/13 00:17:54;;;;;;;18.98;4.72;;;11.90;99.90;;;;;;5030172;28;20107;-60
2022/04/13 00:20:22;;;;;;;21.75;5.30;;;11.80;99.90;;;;;;5035815;28;20419;-59
2022/04/13 00:22:48;;;;;;;18.02;4.70;;;11.80;99.90;;;;;;5033700;28;20528;-59
2022/04/13 00:25:14;;;;;;;17.48;4.90;;;11.80;99.90;;;;;;5033475;28;20033;-59
2022/04/13 00:27:40;;;;;;;17.75;4.85;;;11.80;99.90;;;;;;5032089;28;20428;-60
2022/04/13 00:30:06;;;;;;;18.15;4.90;;;11.80;99.90;;;;;;5028796;28;20084;-59
2022/04/13 00:32:33;;;;;;;16.77;4.53;;;11.70;99.90;;;;;;5033962;28;20493;-60
2022/04/13 00:35:03;;;;;;;21.63;5.43;;;11.70;99.90;;;;;;5034666;28;20025;-59
2022/04/13 00:37:29;;;;;;;19.92;5.10;;;11.70;99.90;;;;;;5033870;28;20045;-59
2022/04/13 00:39:55;;;;;;;16.08;4.85;;;11.70;99.90;;;;;;5033529;28;20494;-59
2022/04/13 00:42:20;;;;;;;20.10;4.90;;;11.70;99.90;;;;;;5031967;28;20023;-59
2022/04/13 00:44:47;;;;;;;18.38;4.60;;;11.60;99.90;;;;;;5030858;28;20513;-59
2022/04/13 00:47:13;;;;;;;19.55;4.85;;;11.70;99.90;;;;;;5035855;28;20505;-60
2022/04/13 00:49:40;;;;;;;21.08;4.88;;;11.60;99.90;;;;;;5033578;28;20390;-59
2022/04/13 00:52:07;;;;;;;18.30;5.13;;;11.50;99.90;;;;;;5033455;28;20034;-59
2022/04/13 00:54:33;;;;;;;15.82;4.40;;;11.50;99.90;;;;;;5033447;28;20021;-59
2022/04/13 00:57:02;;;;;;;16.77;4.80;;;11.60;99.90;;;;;;5029035;28;20045;-60
2022/04/13 00:59:30;;;;;;;20.02;4.75;;;11.50;99.90;;;;;;5043051;28;20032;-59
2022/04/13 01:01:59;;;;;;;20.15;5.07;;;11.50;99.90;;;;;;5034031;28;20095;-59
2022/04/13 01:04:31;;;;;;;18.98;4.63;;;11.40;99.90;;;;;;5033918;28;20029;-59
2022/04/13 01:06:56;;;;;;;19.73;5.00;;;11.40;99.90;;;;;;5032031;28;20028;-59
2022/04/13 01:09:25;;;;;;;16.67;4.60;;;11.40;99.90;;;;;;5033643;28;20021;-59
2022/04/13 01:11:50;;;;;;;19.13;4.75;;;11.30;99.90;;;;;;5032903;28;20030;-59
2022/04/13 01:14:16;;;;;;;21.17;4.90;;;11.30;99.90;;;;;;5038867;28;20033;-60
2022/04/13 01:16:42;;;;;;;17.45;5.05;;;11.20;99.90;;;;;;5036774;28;20104;-59
2022/04/13 01:19:13;;;;;;;18.48;5.22;;;11.20;99.90;;;;;;5036856;28;20029;-59
2022/04/13 01:21:45;;;;;;;18.33;4.97;;;11.10;99.90;;;;;;5036885;28;20032;-59
2022/04/13 01:24:11;;;;;;;18.63;5.20;;;11.10;99.90;;;;;;5034198;28;20025;-59
2022/04/13 01:26:37;;;;;;;20.85;5.53;;;11.20;99.90;;;;;;5035526;28;20419;-60
2022/04/13 01:29:04;;;;;;;18.13;5.20;;;11.10;99.90;;;;;;5037744;28;20104;-59
2022/04/13 01:31:29;;;;;;;20.83;5.53;;;11.10;99.90;;;;;;5036446;28;20052;-59
2022/04/13 01:33:56;;;;;;;15.10;4.85;;;11.10;99.90;;;;;;5036363;28;20065;-60
2022/04/13 01:36:22;;;;;;;16.30;5.57;;;11.10;99.90;;;;;;5034999;28;20033;-59
2022/04/13 01:38:48;;;;;;;14.30;4.93;;;11.00;99.90;;;;;;5033188;28;20494;-59
2022/04/13 01:41:13;;;;;;;18.13;5.82;;;11.00;99.90;;;;;;5037948;28;20033;-59
2022/04/13 01:43:39;;;;;;;17.98;5.18;;;11.00;99.90;;;;;;5036693;28;20037;-59
2022/04/13 01:46:05;;;;;;;16.23;5.20;;;11.00;99.90;;;;;;5034882;28;20021;-59
2022/04/13 01:48:31;;;;;;;17.73;5.43;;;11.00;99.90;;;;;;5034551;28;20481;-59
2022/04/13 01:50:58;;;;;;;16.95;5.15;;;11.00;99.90;;;;;;5016154;28;20021;-59
2022/04/13 01:53:27;;;;;;;17.52;4.95;;;11.00;99.90;;;;;;5038445;28;20041;-59
2022/04/13 01:55:57;;;;;;;15.52;4.82;;;11.00;99.90;;;;;;5035651;28;20026;-59
2022/04/13 01:58:23;;;;;;;17.83;5.30;;;11.00;99.90;;;;;;5036069;28;20064;-59
2022/04/13 02:00:53;;;;;;;17.52;5.22;;;11.00;99.90;;;;;;5036395;28;20067;-59
2022/04/13 02:03:23;;;;;;;17.63;5.22;;;10.90;99.90;;;;;;5034225;28;20045;-60
2022/04/13 02:05:50;;;;;;;14.55;4.45;;;10.80;99.90;;;;;;5032601;28;20037;-59
2022/04/13 02:08:16;;;;;;;13.95;4.90;;;10.90;99.90;;;;;;5037561;28;20029;-59
2022/04/13 02:10:42;;;;;;;18.08;6.25;;;10.90;99.90;;;;;;5035808;28;20033;-59
2022/04/13 02:13:08;;;;;;;15.63;5.35;;;10.80;99.90;;;;;;5035637;28;20128;-59
2022/04/13 02:15:33;;;;;;;17.48;5.85;;;10.90;99.90;;;;;;5035782;28;20107;-59
2022/04/13 02:17:59;;;;;;;17.58;5.50;;;10.90;99.90;;;;;;5031506;28;20068;-60
2022/04/13 02:20:25;;;;;;;17.35;5.43;;;10.90;99.90;;;;;;5044185;28;20491;-59
2022/04/13 02:22:50;;;;;;;17.70;5.30;;;10.80;99.90;;;;;;5036406;28;20037;-59
2022/04/13 02:25:16;;;;;;;14.90;5.32;;;10.80;99.90;;;;;;5033654;28;20031;-59
2022/04/13 02:27:42;;;;;;;17.15;5.70;;;10.80;99.90;;;;;;5034012;28;20025;-59
2022/04/13 02:30:09;;;;;;;19.77;6.45;;;10.80;99.90;;;;;;5032223;28;20021;-59
2022/04/13 02:32:40;;;;;;;17.67;6.28;;;10.80;99.90;;;;;;5035636;28;20049;-59
2022/04/13 02:35:06;;;;;;;18.83;6.55;;;10.80;99.90;;;;;;5036842;28;20029;-58
2022/04/13 02:37:32;;;;;;;23.08;6.75;;;10.80;99.90;;;;;;5035196;28;20033;-59
2022/04/13 02:39:58;;;;;;;13.07;4.90;;;10.80;99.90;;;;;;5034834;28;20022;-59
2022/04/13 02:42:23;;;;;;;19.60;6.05;;;10.70;99.90;;;;;;5034212;28;20535;-59
2022/04/13 02:44:49;;;;;;;19.42;6.05;;;10.70;99.90;;;;;;5031770;28;20033;-59
2022/04/13 02:47:15;;;;;;;19.50;6.38;;;10.60;99.90;;;;;;5037133;28;20470;-59
2022/04/13 02:49:41;;;;;;;18.40;5.63;;;10.70;99.90;;;;;;5033572;28;20148;-59
2022/04/13 02:52:07;;;;;;;19.10;6.00;;;10.60;99.90;;;;;;5034765;28;20057;-58
2022/04/13 02:54:33;;;;;;;17.15;5.55;;;10.60;99.90;;;;;;5033531;28;20068;-59
2022/04/13 02:56:59;;;;;;;16.75;5.88;;;10.40;99.90;;;;;;5030664;28;20036;-59
2022/04/13 02:59:25;;;;;;;17.85;5.63;;;10.60;99.90;;;;;;5036769;28;20026;-59
2022/04/13 03:01:50;;;;;;;15.32;5.53;;;10.40;99.90;;;;;;5034772;28;20033;-59
2022/04/13 03:04:16;;;;;;;17.63;5.75;;;10.40;99.90;;;;;;5033797;28;20059;-59
2022/04/13 03:06:42;;;;;;;20.77;6.28;;;10.50;99.90;;;;;;5032527;28;20025;-59
2022/04/13 03:09:08;;;;;;;19.55;5.93;;;10.40;99.90;;;;;;5031733;28;20071;-59
2022/04/13 03:11:34;;;;;;;16.83;5.63;;;10.60;99.90;;;;;;5034897;28;20108;-59
2022/04/13 03:13:59;;;;;;;23.40;6.03;;;10.60;99.90;;;;;;5035225;28;20183;-59
2022/04/13 03:16:25;;;;;;;17.38;5.00;;;10.70;99.90;;;;;;5034518;28;20044;-59
2022/04/13 03:18:51;;;;;;;16.23;5.57;;;10.60;99.90;;;;;;5034480;28;20021;-59
2022/04/13 03:21:17;;;;;;;14.90;5.20;;;10.50;99.90;;;;;;5032114;28;20410;-59
2022/04/13 03:23:43;;;;;;;16.95;5.30;;;10.50;99.90;;;;;;5032327;28;20017;-59
2022/04/13 03:26:09;;;;;;;13.13;4.93;;;10.30;99.90;;;;;;5036652;28;20021;-59
2022/04/13 03:28:35;;;;;;;15.38;4.90;;;10.10;99.90;;;;;;5034415;28;20030;-59
2022/04/13 03:31:00;;;;;;;16.38;5.13;;;10.20;99.90;;;;;;5033836;28;20017;-58
2022/04/13 03:33:26;;;;;;;18.92;5.75;;;10.10;99.90;;;;;;5033389;28;20079;-59
2022/04/13 03:35:52;;;;;;;18.08;6.07;;;10.20;99.90;;;;;;5030284;28;20191;-59
2022/04/13 03:38:17;;;;;;;17.25;5.47;;;10.30;99.90;;;;;;5036210;28;20026;-59
2022/04/13 03:40:43;;;;;;;13.45;4.85;;;10.20;99.90;;;;;;5034733;28;20049;-58
2022/04/13 03:43:09;;;;;;;19.40;5.30;;;10.00;99.90;;;;;;5032866;28;20030;-58
2022/04/13 03:45:36;;;;;;;17.73;6.28;;;10.10;99.90;;;;;;5032642;28;20075;-59
2022/04/13 03:48:01;;;;;;;14.15;5.10;;;10.10;99.90;;;;;;5029958;28;20044;-59
2022/04/13 03:50:27;;;;;;;15.10;7.97;;;10.00;99.90;;;;;;5035711;28;20034;-59
2022/04/13 03:52:53;;;;;;;16.90;8.10;;;10.00;99.90;;;;;;5034133;28;20029;-59
2022/04/13 03:55:22;;;;;;;15.38;7.20;;;10.00;99.90;;;;;;5034356;28;20478;-59
2022/04/13 03:57:52;;;;;;;18.60;7.10;;;10.00;99.90;;;;;;5032980;28;20045;-59
2022/04/13 04:00:18;;;;;;;19.65;7.45;;;10.00;99.90;;;;;;5031045;28;20082;-59
2022/04/13 04:02:44;;;;;;;18.23;7.35;;;10.00;99.90;;;;;;5031407;28;20033;-59
2022/04/13 04:05:11;;;;;;;20.67;8.85;;;10.00;99.90;;;;;;5035682;28;20475;-59
2022/04/13 04:07:37;;;;;;;19.70;7.85;;;10.00;99.90;;;;;;5034461;28;20065;-59
2022/04/13 04:10:07;;;;;;;18.45;9.50;;;10.10;99.90;;;;;;5033807;28;20022;-59
2022/04/13 04:12:37;;;;;;;17.00;7.72;;;10.10;99.90;;;;;;5033672;28;20025;-59
2022/04/13 04:15:03;;;;;;;18.30;6.43;;;10.10;99.90;;;;;;5030134;28;20033;-59
2022/04/13 04:17:29;;;;;;;18.55;6.28;;;10.10;99.90;;;;;;5034983;28;20489;-59
2022/04/13 04:19:55;;;;;;;18.13;6.75;;;10.00;99.90;;;;;;5033882;28;20026;-59
2022/04/13 04:22:23;;;;;;;15.27;5.93;;;9.90;99.90;;;;;;5032938;28;20029;-59
2022/04/13 04:24:49;;;;;;;16.10;5.72;;;9.80;99.90;;;;;;5032209;28;20037;-59
2022/04/13 04:27:15;;;;;;;14.57;5.70;;;9.70;99.90;;;;;;5031758;28;20218;-59
2022/04/13 04:29:40;;;;;;;15.48;5.97;;;9.70;99.90;;;;;;5032284;28;20026;-60
2022/04/13 04:32:07;;;;;;;14.23;5.82;;;9.80;99.90;;;;;;5035082;28;20112;-58
2022/04/13 04:34:33;;;;;;;18.55;6.78;;;9.70;99.90;;;;;;5033329;28;20486;-59
2022/04/13 04:36:59;;;;;;;14.15;6.28;;;9.70;99.90;;;;;;5033639;28;20494;-59
2022/04/13 04:39:25;;;;;;;15.52;6.25;;;9.90;99.90;;;;;;5033147;28;20056;-59
2022/04/13 04:41:52;;;;;;;17.92;6.18;;;9.70;99.90;;;;;;5030008;28;20063;-59
2022/04/13 04:44:17;;;;;;;18.55;5.88;;;9.70;99.90;;;;;;5039449;28;20075;-59
2022/04/13 04:46:43;;;;;;;16.30;5.45;;;9.60;99.90;;;;;;5037368;28;20037;-59
2022/04/13 04:49:09;;;;;;;16.23;6.13;;;9.50;99.90;;;;;;5037280;28;20029;-59
2022/04/13 04:51:35;;;;;;;16.20;6.30;;;9.50;99.90;;;;;;5037399;28;20087;-59
2022/04/13 04:54:02;;;;;;;17.08;6.70;;;9.50;99.90;;;;;;5033517;28;20503;-59
2022/04/13 04:56:28;;;;;;;15.10;6.53;;;9.70;99.90;;;;;;5038794;28;20022;-59
2022/04/13 04:58:54;;;;;;;15.25;6.07;;;9.70;99.90;;;;;;5035917;28;20040;-59
2022/04/13 05:01:19;;;;;;;17.00;7.18;;;9.50;99.90;;;;;;5035554;28;20030;-58
2022/04/13 05:03:48;;;;;;;29.90;25.13;;;9.50;99.90;;;;;;5035078;28;20063;-58
2022/04/13 05:06:28;;;;;;;12.85;6.13;;;9.60;99.90;;;;;;5034956;28;20104;-59
2022/04/13 05:08:55;;;;;;;17.60;6.35;;;9.60;99.90;;;;;;5033340;28;20061;-59
2022/04/13 05:11:21;;;;;;;15.98;7.22;;;9.40;99.90;;;;;;5038793;28;20026;-59
2022/04/13 05:13:47;;;;;;;22.35;14.10;;;9.50;99.90;;;;;;5036666;28;20406;-59
2022/04/13 05:16:14;;;;;;;35.28;27.70;;;9.60;99.90;;;;;;5036769;28;20025;-59
2022/04/13 05:18:41;;;;;;;31.27;21.55;;;9.90;99.90;;;;;;5036442;28;20029;-59
2022/04/13 05:21:08;;;;;;;30.40;23.23;;;10.10;99.90;;;;;;5033982;28;20025;-59
2022/04/13 05:23:37;;;;;;;27.63;15.43;;;10.10;99.90;;;;;;5036894;28;20132;-59
2022/04/13 05:26:06;;;;;;;32.40;25.80;;;10.30;99.90;;;;;;5037707;28;20490;-59
2022/04/13 05:28:31;;;;;;;34.40;27.45;;;10.40;99.90;;;;;;5036628;28;20053;-59
2022/04/13 05:30:57;;;;;;;23.63;12.90;;;10.30;99.90;;;;;;5036886;28;20102;-58
2022/04/13 05:33:23;;;;;;;20.48;11.73;;;10.40;99.90;;;;;;5035032;28;20044;-59
2022/04/13 05:35:49;;;;;;;15.80;8.27;;;10.50;99.90;;;;;;5033023;28;20054;-59
2022/04/13 05:38:15;;;;;;;21.83;9.85;;;11.10;99.90;;;;;;5038390;28;20101;-59
2022/04/13 05:40:41;;;;;;;17.95;7.25;;;10.50;99.90;;;;;;5034945;28;20033;-59
2022/04/13 05:43:07;;;;;;;19.58;7.20;;;10.60;99.90;;;;;;5034738;28;20029;-58
2022/04/13 05:45:33;;;;;;;22.50;10.93;;;10.70;99.90;;;;;;5036584;28;20024;-59
2022/04/13 05:47:59;;;;;;;16.23;8.95;;;10.70;99.90;;;;;;5031733;28;20474;-58
2022/04/13 05:50:25;;;;;;;18.27;8.57;;;10.80;99.90;;;;;;5045256;28;20017;-59
2022/04/13 05:52:51;;;;;;;16.08;6.18;;;10.90;99.90;;;;;;5036822;28;20044;-59
2022/04/13 05:55:16;;;;;;;15.65;6.05;;;11.00;99.90;;;;;;5035406;28;20017;-58
2022/04/13 05:57:42;;;;;;;15.45;6.78;;;11.10;99.90;;;;;;5036145;28;20043;-59
2022/04/13 06:00:13;;;;;;;17.75;5.20;;;11.20;99.90;;;;;;5032827;28;20052;-59
2022/04/13 06:02:41;;;;;;;19.60;5.97;;;11.20;99.90;;;;;;5034977;28;20498;-59
2022/04/13 06:05:08;;;;;;;14.52;5.65;;;11.30;99.90;;;;;;5037546;28;20478;-59
2022/04/13 06:07:33;;;;;;;21.17;9.57;;;11.40;99.90;;;;;;5035980;28;20032;-59
2022/04/13 06:10:01;;;;;;;20.38;8.85;;;11.50;99.90;;;;;;5036224;28;20025;-58
2022/04/13 06:12:27;;;;;;;14.60;4.72;;;11.50;99.90;;;;;;5035033;28;20044;-58
2022/04/13 06:15:06;;;;;;;18.10;6.95;;;11.50;99.90;;;;;;5031793;28;20029;-58
2022/04/13 06:17:32;;;;;;;14.35;4.93;;;11.60;99.90;;;;;;5045622;28;20028;-58
2022/04/13 06:19:58;;;;;;;19.85;6.28;;;11.70;99.90;;;;;;5034924;28;20029;-59
2022/04/13 06:22:23;;;;;;;13.02;5.45;;;11.80;99.90;;;;;;5034554;28;20032;-58
2022/04/13 06:24:51;;;;;;;14.43;5.55;;;11.80;99.90;;;;;;5035506;28;20784;-58
2022/04/13 06:27:20;;;;;;;14.05;5.40;;;11.80;99.90;;;;;;5033621;28;20525;-59
2022/04/13 06:29:46;;;;;;;17.13;5.72;;;11.90;99.90;;;;;;5031034;28;20017;-59
2022/04/13 06:32:13;;;;;;;12.93;6.78;;;12.00;99.90;;;;;;5037394;28;20033;-59
2022/04/13 06:34:39;;;;;;;13.90;5.07;;;12.00;99.90;;;;;;5035310;28;20091;-58
2022/04/13 06:37:05;;;;;;;14.23;4.45;;;12.10;99.90;;;;;;5035080;28;20045;-59
2022/04/13 06:39:31;;;;;;;13.57;4.30;;;12.20;99.90;;;;;;5035333;28;20123;-58
2022/04/13 06:41:56;;;;;;;14.00;4.43;;;12.20;99.90;;;;;;5014976;28;20100;-59
2022/04/13 06:44:22;;;;;;;13.05;4.70;;;12.40;99.90;;;;;;5037178;28;20044;-59
2022/04/13 06:46:48;;;;;;;10.13;4.07;;;12.50;99.90;;;;;;5035125;28;20029;-59
2022/04/13 06:49:13;;;;;;;11.48;4.63;;;12.60;99.90;;;;;;5035117;28;20029;-59
2022/04/13 06:51:39;;;;;;;13.60;4.90;;;12.80;99.90;;;;;;5035504;28;20074;-59
2022/04/13 06:54:05;;;;;;;14.93;5.85;;;12.90;99.90;;;;;;5031414;28;20505;-59
2022/04/13 06:56:34;;;;;;;16.30;6.40;;;13.10;99.90;;;;;;5035549;28;20025;-59
2022/04/13 06:58:59;;;;;;;14.07;6.60;;;13.30;99.90;;;;;;5034383;28;20077;-59
2022/04/13 07:01:26;;;;;;;15.73;5.78;;;13.50;99.90;;;;;;5033210;28;20545;-59
2022/04/13 07:03:51;;;;;;;13.80;4.78;;;13.80;99.90;;;;;;5034827;28;20033;-58
2022/04/13 07:06:17;;;;;;;9.13;3.60;;;14.30;99.90;;;;;;5032322;28;20075;-58
2022/04/13 07:08:43;;;;;;;11.63;3.88;;;15.00;99.90;;;;;;5032459;28;20032;-58
2022/04/13 07:11:09;;;;;;;11.38;4.03;;;15.10;99.90;;;;;;5034521;28;20018;-59
2022/04/13 07:13:35;;;;;;;11.45;3.63;;;16.00;99.90;;;;;;5034301;28;20041;-59
2022/04/13 07:16:00;;;;;;;12.60;3.65;;;16.80;99.90;;;;;;5034722;28;20025;-59
2022/04/13 07:18:26;;;;;;;9.43;3.22;;;16.50;99.90;;;;;;5034238;28;20032;-59
2022/04/13 07:20:52;;;;;;;11.23;3.22;;;15.20;99.90;;;;;;5031327;28;20042;-58
2022/04/13 07:23:18;;;;;;;10.70;3.45;;;15.20;99.90;;;;;;5036553;28;20339;-59
2022/04/13 07:25:44;;;;;;;8.80;2.70;;;15.50;99.90;;;;;;5034378;28;20394;-59
2022/04/13 07:28:10;;;;;;;13.48;3.58;;;15.60;99.90;;;;;;5034645;28;20032;-59
2022/04/13 07:30:36;;;;;;;12.30;3.33;;;15.30;99.90;;;;;;5034613;28;20035;-59
2022/04/13 07:33:02;;;;;;;13.05;3.20;;;15.20;99.90;;;;;;5029162;28;20482;-58
2022/04/13 07:35:29;;;;;;;8.32;2.92;;;14.90;99.90;;;;;;5035827;28;20036;-59
2022/04/13 07:37:55;;;;;;;8.60;3.13;;;14.70;99.90;;;;;;5033228;28;20037;-59
2022/04/13 07:40:21;;;;;;;12.27;3.40;;;14.80;99.90;;;;;;5032869;28;20025;-59
2022/04/13 07:42:47;;;;;;;10.98;3.25;;;14.80;99.90;;;;;;5033804;28;20055;-58
2022/04/13 07:45:13;;;;;;;12.00;3.60;;;14.90;99.90;;;;;;5031614;28;20021;-59
2022/04/13 07:47:39;;;;;;;9.55;3.28;;;14.40;99.90;;;;;;5033469;28;20056;-58
2022/04/13 07:50:07;;;;;;;10.38;3.60;;;14.40;99.90;;;;;;5035539;28;20475;-59
2022/04/13 07:52:34;;;;;;;8.23;2.97;;;14.40;99.90;;;;;;5034044;28;20056;-58
2022/04/13 07:55:00;;;;;;;10.02;3.72;;;14.40;99.90;;;;;;5033955;28;20045;-58
2022/04/13 07:57:26;;;;;;;13.15;5.13;;;14.50;99.90;;;;;;5033119;28;20040;-58
2022/04/13 07:59:52;;;;;;;10.43;3.53;;;14.40;99.90;;;;;;5030320;28;20018;-58
2022/04/13 08:02:20;;;;;;;10.05;3.30;;;14.30;99.90;;;;;;5035958;28;20040;-58
2022/04/13 08:04:46;;;;;;;9.48;3.53;;;14.20;99.90;;;;;;5033871;28;20043;-58
2022/04/13 08:07:12;;;;;;;10.73;3.55;;;14.30;99.90;;;;;;5033901;28;20028;-59
2022/04/13 08:09:39;;;;;;;10.13;3.70;;;14.50;99.90;;;;;;5033937;28;20029;-59
2022/04/13 08:12:05;;;;;;;12.63;3.95;;;14.30;99.90;;;;;;5029865;28;20025;-59
2022/04/13 08:14:31;;;;;;;11.60;4.25;;;14.40;99.90;;;;;;5035039;28;20030;-58
2022/04/13 08:16:57;;;;;;;10.10;3.63;;;14.50;99.90;;;;;;5034011;28;20029;-58
2022/04/13 08:19:25;;;;;;;12.43;3.60;;;14.60;99.90;;;;;;5036223;28;20418;-58
2022/04/13 08:21:51;;;;;;;11.82;3.38;;;14.60;99.90;;;;;;5037714;28;20032;-58
2022/04/13 08:24:20;;;;;;;12.23;3.60;;;14.90;99.90;;;;;;5035982;28;20037;-58
2022/04/13 08:26:45;;;;;;;8.95;3.00;;;15.10;99.90;;;;;;5034355;28;20111;-58
2022/04/13 08:29:11;;;;;;;9.57;2.85;;;15.00;99.90;;;;;;5040007;28;20033;-59
2022/04/13 08:31:37;;;;;;;12.25;6.28;;;15.10;99.90;;;;;;5037695;28;20091;-58
2022/04/13 08:34:03;;;;;;;11.02;3.38;;;15.50;99.90;;;;;;5037518;28;20037;-58
2022/04/13 08:36:29;;;;;;;11.02;4.80;;;15.60;99.90;;;;;;5037053;28;20037;-58
2022/04/13 08:38:54;;;;;;;8.20;2.92;;;15.70;99.90;;;;;;5033507;28;20092;-58
2022/04/13 08:41:45;;;;;;;8.63;3.13;;;15.80;99.90;;;;;;5039623;28;20104;-58
2022/04/13 08:44:17;;;;;;;8.38;2.70;;;15.90;99.90;;;;;;5037402;28;20398;-58
2022/04/13 08:46:45;;;;;;;8.48;2.58;;;16.10;99.90;;;;;;5037799;28;20030;-58
2022/04/13 08:49:13;;;;;;;10.20;2.78;;;16.30;99.90;;;;;;5037303;28;20029;-58
2022/04/13 08:51:39;;;;;;;7.85;2.53;;;17.60;99.90;;;;;;5037388;28;20485;-58
2022/04/13 08:54:19;;;;;;;9.30;4.60;;;17.60;99.90;;;;;;5032047;28;20061;-58
2022/04/13 08:56:48;;;;;;;5.10;2.50;;;17.90;99.90;;;;;;5034840;28;20060;-58
2022/04/13 08:59:44;;;;;;;6.45;2.90;;;18.30;99.90;;;;;;5037515;28;20029;-58
2022/04/13 09:02:25;;;;;;;8.90;3.05;;;19.20;99.90;;;;;;5035738;28;20132;-58
2022/04/13 09:04:56;;;;;;;6.88;2.45;;;19.90;99.90;;;;;;5036949;28;20030;-59
2022/04/13 09:07:23;;;;;;;6.00;2.58;;;19.10;99.90;;;;;;5037313;28;20029;-58
2022/04/13 09:09:53;;;;;;;5.80;2.25;;;19.70;99.90;;;;;;5036577;28;20544;-58
2022/04/13 09:12:19;;;;;;;7.13;2.45;;;19.90;99.90;;;;;;5035014;28;20037;-58
2022/04/13 09:14:45;;;;;;;8.52;2.70;;;20.30;99.90;;;;;;5034235;28;20091;-58
2022/04/13 09:17:11;;;;;;;7.07;2.35;;;20.70;99.90;;;;;;5038912;28;20025;-59
2022/04/13 09:19:38;;;;;;;5.57;2.22;;;21.10;99.90;;;;;;5037109;28;20115;-58
2022/04/13 09:22:09;;;;;;;5.80;2.13;;;20.40;99.90;;;;;;5036627;28;20025;-58
2022/04/13 09:24:37;;;;;;;6.50;2.33;;;20.00;99.90;;;;;;5036282;28;20025;-59
2022/04/13 09:27:04;;;;;;;7.20;2.50;;;19.20;99.90;;;;;;5032797;28;20026;-59
2022/04/13 09:29:29;;;;;;;6.68;2.55;;;19.90;99.90;;;;;;5036881;28;20033;-59
2022/04/13 09:31:55;;;;;;;5.68;2.30;;;20.40;99.90;;;;;;5036867;28;20035;-59
2022/04/13 09:34:21;;;;;;;5.43;2.38;;;21.20;99.90;;;;;;5035396;28;20026;-58
2022/04/13 09:36:48;;;;;;;5.18;2.22;;;21.10;99.90;;;;;;5034659;28;20048;-59
2022/04/13 09:39:15;;;;;;;5.80;2.20;;;20.10;99.90;;;;;;5033581;28;20029;-58
2022/04/13 09:41:41;;;;;;;6.90;2.38;;;19.70;99.90;;;;;;5034785;28;20030;-59
2022/04/13 09:44:14;;;;;;;6.78;2.30;;;19.60;99.90;;;;;;5037772;28;20109;-59
2022/04/13 09:46:41;;;;;;;6.32;2.20;;;19.10;99.90;;;;;;5036309;28;20029;-59
2022/04/13 09:49:15;;;;;;;7.53;2.35;;;18.80;99.90;;;;;;5036171;28;20056;-59
2022/04/13 09:51:41;;;;;;;;;;;19.00;99.90;;;;;;5037149;28;20112;-59
2022/04/13 09:54:11;;;;;;;5.35;2.47;;;18.80;99.90;;;;;;5032347;28;19931;-59
2022/04/13 09:56:43;;;;;;;5.60;2.33;;;18.70;99.90;;;;;;5035718;28;20459;-59
2022/04/13 09:59:10;;;;;;;5.07;2.00;;;18.40;99.90;;;;;;5037966;28;20478;-59
2022/04/13 10:01:36;;;;;;;5.93;2.60;;;17.60;99.90;;;;;;5036406;28;20056;-58
2022/04/13 10:04:05;;;;;;;6.28;2.28;;;18.10;99.90;;;;;;5035929;28;20021;-59
2022/04/13 10:06:33;;;;;;;5.60;2.30;;;19.10;99.90;;;;;;5035751;28;20128;-59
2022/04/13 10:09:06;;;;;;;8.00;2.13;;;19.30;99.90;;;;;;5015952;28;20025;-59
2022/04/13 10:11:32;;;;;;;5.53;2.13;;;19.30;99.90;;;;;;5045839;28;20075;-58
2022/04/13 10:14:09;;;;;;;5.53;2.50;;;18.40;99.90;;;;;;5034568;28;20045;-59
2022/04/13 10:16:35;;;;;;;7.20;2.13;;;18.40;99.90;;;;;;5034124;28;20236;-59
2022/04/13 10:19:03;;;;;;;4.60;2.05;;;18.40;99.90;;;;;;5035878;28;20057;-58
2022/04/13 10:21:43;;;;;;;6.03;2.17;;;18.00;99.90;;;;;;5035259;28;20417;-59
2022/04/13 10:24:29;;;;;;;5.00;2.28;;;18.40;99.90;;;;;;5017801;28;20030;-58
2022/04/13 10:27:12;;;;;;;6.32;2.42;;;18.50;99.90;;;;;;5031531;28;20394;-59
2022/04/13 10:29:39;;;;;;;4.90;2.00;;;18.70;99.90;;;;;;5045505;28;20020;-58
2022/04/13 10:32:10;;;;;;;4.90;2.20;;;18.30;99.90;;;;;;5036896;28;20237;-59
2022/04/13 10:34:38;;;;;;;5.70;2.40;;;18.20;99.90;;;;;;5035017;28;20063;-61
2022/04/13 10:37:05;;;;;;;5.45;2.20;;;17.80;99.90;;;;;;5034987;28;20060;-59
2022/04/13 10:39:31;;;;;;;4.82;1.90;;;17.60;99.90;;;;;;5035076;28;20036;-59
2022/04/13 10:41:57;;;;;;;5.80;2.20;;;18.50;99.90;;;;;;5030931;28;20610;-58
2022/04/13 10:44:34;;;;;;;6.45;2.38;;;18.60;99.90;;;;;;5037080;28;20499;-59
2022/04/13 10:47:03;;;;;;;5.93;2.20;;;19.30;99.90;;;;;;5034685;28;20057;-59
2022/04/13 10:49:34;;;;;;;6.05;2.30;;;19.30;99.90;;;;;;5034737;28;20033;-59
2022/04/13 10:52:07;;;;;;;5.45;2.05;;;19.40;99.90;;;;;;5033129;28;20051;-58
2022/04/13 10:54:37;;;;;;;7.65;2.10;;;19.30;99.90;;;;;;5033253;28;20037;-59
2022/04/13 10:57:06;;;;;;;4.20;2.22;;;18.40;99.90;;;;;;5029504;28;20040;-59
2022/04/13 10:59:50;;;;;;;5.07;2.35;;;18.90;99.90;;;;;;5035971;28;20120;-59
2022/04/13 11:02:29;;;;;;;3.97;1.65;;;19.40;99.90;;;;;;5035760;28;20037;-59
2022/04/13 11:04:56;;;;;;;3.40;1.60;;;19.70;99.90;;;;;;5033441;28;20056;-59
2022/04/13 11:07:24;;;;;;;5.18;1.90;;;19.40;99.90;;;;;;5034282;28;20030;-59
2022/04/13 11:09:54;;;;;;;4.05;1.80;;;20.00;99.90;;;;;;5034688;28;20033;-58
2022/04/13 11:12:21;;;;;;;3.95;1.63;;;19.90;99.90;;;;;;5032877;28;20033;-59
2022/04/13 11:14:51;;;;;;;4.63;1.80;;;19.30;99.90;;;;;;5032084;28;20413;-58
2022/04/13 11:17:16;;;;;;;3.60;1.80;;;19.10;99.90;;;;;;5036539;28;20100;-59
2022/04/13 11:19:43;;;;;;;4.82;2.13;;;19.30;99.90;;;;;;5034177;28;20116;-59
2022/04/13 11:22:15;;;;;;;3.55;2.10;;;19.50;99.90;;;;;;5034487;28;20021;-59
2022/04/13 11:24:47;;;;;;;4.97;2.17;;;19.40;99.90;;;;;;5034655;28;20060;-59
2022/04/13 11:27:13;;;;;;;3.45;1.90;;;19.60;99.90;;;;;;5030337;28;20032;-59
2022/04/13 11:29:44;;;;;;;3.67;1.92;;;20.00;99.90;;;;;;5033877;28;20364;-59
2022/04/13 11:32:15;;;;;;;4.97;2.00;;;19.70;99.90;;;;;;5034097;28;20033;-60
2022/04/13 11:34:40;;;;;;;4.22;1.40;;;19.40;99.90;;;;;;5032430;28;20029;-59
2022/04/13 11:37:10;;;;;;;4.45;1.73;;;19.90;99.90;;;;;;5033862;28;20133;-59
2022/04/13 11:40:06;;;;;;;2.85;1.52;;;19.90;99.90;;;;;;5034718;28;20367;-59
2022/04/13 11:42:35;;;;;;;2.55;1.33;;;19.70;99.90;;;;;;5034123;28;20131;-59
2022/04/13 11:45:08;;;;;;;5.10;1.92;;;19.70;99.90;;;;;;5014879;28;20391;-59
2022/04/13 11:47:49;;;;;;;4.88;1.80;;;20.00;99.90;;;;;;5043904;28;20021;-59
2022/04/13 11:50:14;;;;;;;4.03;1.48;;;20.30;99.90;;;;;;5034408;28;20040;-59
2022/04/13 11:52:53;;;;;;;2.00;1.10;;;19.90;99.90;;;;;;5033514;28;20041;-59
2022/04/13 11:55:42;;;;;;;2.00;1.60;;;20.40;99.90;;;;;;5034406;28;20476;-59
2022/04/13 11:58:08;;;;;;;5.13;3.38;;;20.40;99.90;;;;;;5033966;28;20028;-58
2022/04/13 12:00:43;;;;;;;3.92;1.55;;;20.40;99.90;;;;;;5033911;28;20029;-58
2022/04/13 12:03:16;;;;;;;4.25;2.20;;;19.70;99.90;;;;;;5029248;28;20022;-58
2022/04/13 12:06:02;;;;;;;3.55;1.80;;;19.10;99.90;;;;;;5032420;28;20033;-59
2022/04/13 12:08:32;;;;;;;2.28;1.20;;;19.20;99.90;;;;;;5043341;28;20021;-58
2022/04/13 12:11:11;;;;;;;5.15;1.60;;;18.90;99.90;;;;;;5034559;28;20047;-59
2022/04/13 12:13:56;;;;;;;4.22;1.30;;;18.60;99.90;;;;;;5032553;28;20037;-59
2022/04/13 12:16:26;;;;;;;2.40;1.13;;;19.40;99.90;;;;;;5033765;28;20394;-59
2022/04/13 12:18:53;;;;;;;3.00;1.20;;;19.20;99.90;;;;;;5033568;28;20429;-59
2022/04/13 12:21:22;;;;;;;4.03;2.30;;;18.40;99.90;;;;;;5031979;28;20434;-59
2022/04/13 12:23:51;;;;;;;4.72;3.30;;;18.40;99.90;;;;;;5031228;28;20577;-58
2022/04/13 12:26:28;;;;;;;2.42;1.48;;;18.60;99.90;;;;;;5035378;28;20030;-59
2022/04/13 12:28:53;;;;;;;2.65;1.50;;;18.30;99.90;;;;;;5034174;28;20493;-58
2022/04/13 12:31:19;;;;;;;3.83;1.45;;;18.20;99.90;;;;;;5033406;28;20021;-59
2022/04/13 12:33:45;;;;;;;2.88;1.30;;;18.20;99.90;;;;;;5033345;28;20043;-59
2022/04/13 12:36:11;;;;;;;2.42;1.20;;;18.40;99.90;;;;;;5030629;28;20530;-59
2022/04/13 12:38:38;;;;;;;3.28;1.20;;;18.40;99.90;;;;;;5033364;28;20022;-58
2022/04/13 12:41:07;;;;;;;3.25;1.23;;;18.20;99.90;;;;;;5034707;28;20036;-59
2022/04/13 12:43:33;;;;;;;3.67;1.80;;;18.20;99.90;;;;;;5034107;28;20033;-59